createdAt,value
2022-08-20T00:02:16.783Z,26.53
2022-08-20T00:04:45.264Z,26.48
2022-08-20T00:07:14.710Z,26.44
2022-08-20T00:09:44.317Z,26.41
2022-08-20T00:12:16.741Z,26.38
2022-08-20T00:14:44.980Z,26.35
2022-08-20T00:17:13.441Z,26.32
2022-08-20T00:19:41.785Z,26.28
2022-08-20T00:22:10.170Z,26.24
2022-08-20T00:24:38.569Z,26.20
2022-08-20T00:27:06.829Z,26.14
2022-08-20T00:29:35.104Z,26.10
2022-08-20T00:32:03.547Z,26.05
2022-08-20T00:34:31.768Z,26.02
2022-08-20T00:37:00.110Z,25.97
2022-08-20T00:39:28.989Z,25.93
2022-08-20T00:41:57.282Z,25.88
2022-08-20T00:44:25.848Z,25.83
2022-08-20T00:46:54.744Z,25.78
2022-08-20T00:49:28.147Z,25.73
2022-08-20T00:52:05.969Z,25.68
2022-08-20T00:54:41.906Z,25.64
2022-08-20T00:57:23.149Z,25.61
2022-08-20T00:59:52.992Z,25.58
2022-08-20T01:02:23.463Z,25.56
2022-08-20T01:04:57.895Z,25.54
2022-08-20T01:07:37.525Z,25.49
2022-08-20T01:10:08.039Z,25.45
2022-08-20T01:12:40.211Z,25.42
2022-08-20T01:15:13.569Z,25.39
2022-08-20T01:17:46.396Z,25.36
2022-08-20T01:20:23.084Z,25.35
2022-08-20T01:23:28.559Z,25.35
2022-08-20T01:26:03.968Z,25.33
2022-08-20T01:28:36.216Z,25.29
2022-08-20T01:31:07.107Z,25.26
2022-08-20T01:33:36.045Z,25.25
2022-08-20T01:36:06.183Z,25.24
2022-08-20T01:38:35.519Z,25.19
2022-08-20T01:41:24.606Z,25.12
2022-08-20T01:43:58.813Z,24.99
2022-08-20T01:46:33.000Z,25.03
2022-08-20T01:49:21.063Z,24.97
2022-08-20T01:51:54.195Z,24.82
2022-08-20T01:54:23.420Z,24.88
2022-08-20T01:56:57.519Z,24.82
2022-08-20T01:59:25.867Z,24.74
2022-08-20T02:01:54.592Z,24.67
2022-08-20T02:04:23.849Z,24.62
2022-08-20T02:06:57.742Z,24.55
2022-08-20T02:09:33.511Z,24.51
2022-08-20T02:12:03.470Z,24.41
2022-08-20T02:14:32.551Z,24.33
2022-08-20T02:17:01.402Z,24.30
2022-08-20T02:19:34.479Z,24.24
2022-08-20T02:22:11.443Z,24.17
2022-08-20T02:24:39.636Z,24.12
2022-08-20T02:27:07.880Z,24.07
2022-08-20T02:29:36.127Z,24.02
2022-08-20T02:32:25.066Z,23.99
2022-08-20T02:34:55.046Z,23.95
2022-08-20T02:37:23.343Z,23.93
2022-08-20T02:39:51.690Z,23.89
2022-08-20T02:42:19.990Z,23.87
2022-08-20T02:44:48.231Z,23.84
2022-08-20T02:47:17.351Z,23.81
2022-08-20T02:49:45.678Z,23.75
2022-08-20T02:52:13.898Z,23.69
2022-08-20T02:54:42.138Z,23.48
2022-08-20T02:57:15.466Z,23.55
2022-08-20T02:59:45.384Z,23.50
2022-08-20T03:02:14.533Z,23.44
2022-08-20T03:04:43.130Z,23.39
2022-08-20T03:07:12.221Z,23.32
2022-08-20T03:09:41.342Z,23.28
2022-08-20T03:12:10.010Z,23.24
2022-08-20T03:14:38.469Z,23.22
2022-08-20T03:17:06.861Z,23.22
2022-08-20T03:19:35.087Z,23.23
2022-08-20T03:22:03.466Z,23.23
2022-08-20T03:24:31.684Z,23.22
2022-08-20T03:26:59.888Z,23.20
2022-08-20T03:29:28.218Z,23.19
2022-08-20T03:31:56.402Z,23.19
2022-08-20T03:34:24.665Z,23.18
2022-08-20T03:36:52.885Z,23.18
2022-08-20T03:39:21.177Z,23.16
2022-08-20T03:41:49.381Z,23.15
2022-08-20T03:44:18.729Z,23.14
2022-08-20T03:46:47.109Z,23.14
2022-08-20T03:49:15.313Z,23.14
2022-08-20T03:51:57.296Z,23.13
2022-08-20T03:54:27.449Z,23.12
2022-08-20T03:57:00.969Z,23.13
2022-08-20T03:59:33.356Z,23.11
2022-08-20T04:02:01.589Z,23.10
2022-08-20T04:04:29.892Z,23.08
2022-08-20T04:06:58.273Z,23.08
2022-08-20T04:09:26.493Z,23.06
2022-08-20T04:12:00.376Z,23.05
2022-08-20T04:14:29.285Z,23.02
2022-08-20T04:16:58.485Z,23.01
2022-08-20T04:19:29.139Z,22.98
2022-08-20T04:21:59.697Z,22.98
2022-08-20T04:24:32.235Z,22.95
2022-08-20T04:27:03.012Z,22.95
2022-08-20T04:29:35.387Z,22.96
2022-08-20T04:32:06.363Z,22.97
2022-08-20T04:34:35.246Z,22.96
2022-08-20T04:37:04.445Z,22.95
2022-08-20T04:39:33.350Z,22.94
2022-08-20T04:42:01.585Z,22.92
2022-08-20T04:44:29.845Z,22.84
2022-08-20T04:46:58.796Z,22.94
2022-08-20T04:49:28.097Z,22.96
2022-08-20T04:51:56.812Z,22.96
2022-08-20T04:54:25.242Z,22.96
2022-08-20T04:56:53.585Z,22.97
2022-08-20T04:59:21.881Z,22.99
2022-08-20T05:01:50.056Z,22.93
2022-08-20T05:04:18.322Z,23.07
2022-08-20T05:06:47.326Z,23.09
2022-08-20T05:09:15.588Z,23.14
2022-08-20T05:11:45.140Z,23.19
2022-08-20T05:14:15.246Z,23.24
2022-08-20T05:16:43.461Z,23.29
2022-08-20T05:19:13.292Z,23.34
2022-08-20T05:21:41.787Z,23.37
2022-08-20T05:24:11.533Z,23.45
2022-08-20T05:26:39.961Z,23.50
2022-08-20T05:29:08.227Z,23.57
2022-08-20T05:31:36.492Z,23.63
2022-08-20T05:34:10.810Z,23.71
2022-08-20T05:36:49.202Z,23.77
2022-08-20T05:39:20.502Z,23.83
2022-08-20T05:41:52.444Z,23.86
2022-08-20T05:44:21.001Z,23.89
2022-08-20T05:46:49.195Z,23.90
2022-08-20T05:49:20.431Z,23.93
2022-08-20T05:51:51.533Z,23.96
2022-08-20T05:54:20.029Z,23.98
2022-08-20T05:56:48.414Z,24.02
2022-08-20T05:59:19.911Z,24.04
2022-08-20T06:01:50.528Z,24.02
2022-08-20T06:04:26.824Z,24.00
2022-08-20T06:07:04.313Z,24.00
2022-08-20T06:09:33.081Z,23.97
2022-08-20T06:12:04.648Z,23.97
2022-08-20T06:14:33.124Z,23.97
2022-08-20T06:17:06.892Z,23.97
2022-08-20T06:19:36.440Z,23.96
2022-08-20T06:22:18.319Z,23.96
2022-08-20T06:24:51.350Z,24.04
2022-08-20T06:27:20.257Z,24.08
2022-08-20T06:29:49.329Z,24.13
2022-08-20T06:32:19.981Z,24.18
2022-08-20T06:35:02.344Z,24.28
2022-08-20T06:37:36.594Z,24.34
2022-08-20T06:40:07.195Z,24.42
2022-08-20T06:42:35.971Z,24.47
2022-08-20T06:45:07.440Z,24.51
2022-08-20T06:47:39.471Z,24.54
2022-08-20T06:50:12.089Z,24.58
2022-08-20T06:52:51.934Z,24.61
2022-08-20T06:55:30.732Z,24.63
2022-08-20T06:58:01.815Z,24.64
2022-08-20T07:00:32.771Z,24.63
2022-08-20T07:03:02.379Z,24.60
2022-08-20T07:05:33.272Z,24.59
2022-08-20T07:08:02.151Z,24.62
2022-08-20T07:10:31.312Z,24.67
2022-08-20T07:13:00.471Z,24.71
2022-08-20T07:15:29.582Z,24.77
2022-08-20T07:18:01.664Z,24.80
2022-08-20T07:20:32.227Z,24.84
2022-08-20T07:23:01.157Z,24.88
2022-08-20T07:25:33.751Z,24.92
2022-08-20T07:28:04.950Z,25.00
2022-08-20T07:30:56.654Z,25.06
2022-08-20T07:33:30.655Z,25.17
2022-08-20T07:36:00.796Z,25.29
2022-08-20T07:38:31.170Z,25.41
2022-08-20T07:41:06.554Z,25.50
2022-08-20T07:43:35.093Z,25.60
2022-08-20T07:46:09.156Z,25.68
2022-08-20T07:48:40.139Z,25.70
2022-08-20T07:51:10.956Z,25.92
2022-08-20T07:53:40.783Z,25.97
2022-08-20T07:56:12.247Z,26.03
2022-08-20T07:58:50.489Z,26.12
2022-08-20T08:01:28.766Z,26.14
2022-08-20T08:03:59.179Z,26.16
2022-08-20T08:06:30.293Z,26.14
2022-08-20T08:09:04.843Z,26.33
2022-08-20T08:11:34.442Z,26.44
2022-08-20T08:14:05.474Z,26.49
2022-08-20T08:16:35.513Z,26.59
2022-08-20T08:19:06.770Z,26.71
2022-08-20T08:21:35.323Z,26.84
2022-08-20T08:24:03.899Z,26.94
2022-08-20T08:26:32.072Z,27.05
2022-08-20T08:29:00.335Z,27.07
2022-08-20T08:31:29.004Z,27.07
2022-08-20T08:33:57.227Z,27.16
2022-08-20T08:36:26.967Z,27.30
2022-08-20T08:38:56.726Z,27.49
2022-08-20T08:41:37.197Z,27.65
2022-08-20T08:44:21.194Z,27.77
2022-08-20T08:46:53.470Z,28.05
2022-08-20T08:49:37.279Z,28.32
2022-08-20T08:52:30.154Z,28.51
2022-08-20T08:55:03.763Z,28.61
2022-08-20T08:57:32.887Z,28.56
2022-08-20T09:00:14.581Z,28.59
2022-08-20T09:02:57.537Z,28.61
2022-08-20T09:05:41.119Z,28.85
2022-08-20T09:08:16.844Z,29.15
2022-08-20T09:10:46.332Z,29.34
2022-08-20T09:13:14.582Z,29.65
2022-08-20T09:15:43.025Z,29.91
2022-08-20T09:18:11.262Z,30.13
2022-08-20T09:20:39.429Z,30.38
2022-08-20T09:23:07.747Z,30.44
2022-08-20T09:25:37.147Z,30.62
2022-08-20T09:28:05.886Z,30.97
2022-08-20T09:30:34.088Z,31.22
2022-08-20T09:33:04.421Z,31.55
2022-08-20T09:35:32.826Z,31.91
2022-08-20T09:38:02.126Z,31.97
2022-08-20T09:40:31.447Z,32.19
2022-08-20T09:42:59.706Z,32.47
2022-08-20T09:45:28.019Z,32.56
2022-08-20T09:47:56.922Z,32.47
2022-08-20T09:50:28.104Z,32.19
2022-08-20T09:52:59.622Z,31.66
2022-08-20T09:55:47.061Z,31.12
2022-08-20T09:58:39.526Z,30.54
2022-08-20T10:01:17.161Z,30.03
2022-08-20T10:03:49.966Z,29.63
2022-08-20T10:06:20.594Z,29.31
2022-08-20T10:08:50.393Z,29.04
2022-08-20T10:11:18.941Z,28.78
2022-08-20T10:13:47.166Z,28.65
2022-08-20T10:16:15.446Z,28.48
2022-08-20T10:18:43.649Z,28.38
2022-08-20T10:21:12.782Z,28.28
2022-08-20T10:23:41.555Z,28.27
2022-08-20T10:26:11.485Z,28.28
2022-08-20T10:28:40.007Z,28.29
2022-08-20T10:31:13.182Z,28.33
2022-08-20T10:33:42.583Z,28.36
2022-08-20T10:36:15.543Z,28.27
2022-08-20T10:38:44.898Z,28.22
2022-08-20T10:41:13.178Z,28.19
2022-08-20T10:43:41.425Z,28.18
2022-08-20T10:46:09.891Z,28.18
2022-08-20T10:48:39.139Z,28.13
2022-08-20T10:51:07.340Z,28.13
2022-08-20T10:53:36.239Z,28.16
2022-08-20T10:56:04.715Z,28.19
2022-08-20T10:58:39.288Z,28.23
2022-08-20T11:01:08.889Z,28.21
2022-08-20T11:03:37.189Z,28.20
2022-08-20T11:06:05.731Z,28.21
2022-08-20T11:08:35.906Z,28.22
2022-08-20T11:11:06.129Z,28.15
2022-08-20T11:13:35.908Z,28.09
2022-08-20T11:16:04.796Z,28.06
2022-08-20T11:18:33.446Z,28.03
2022-08-20T11:21:02.237Z,28.00
2022-08-20T11:23:30.669Z,27.99
2022-08-20T11:25:59.469Z,27.99
2022-08-20T11:28:31.581Z,27.95
2022-08-20T11:31:01.929Z,27.86
2022-08-20T11:33:30.115Z,27.81
2022-08-20T11:35:58.449Z,27.81
2022-08-20T11:38:27.118Z,27.79
2022-08-20T11:40:55.362Z,27.77
2022-08-20T11:43:23.972Z,27.77
2022-08-20T11:45:56.325Z,27.80
2022-08-20T11:48:24.553Z,27.84
2022-08-20T11:50:52.914Z,27.94
2022-08-20T11:53:22.235Z,27.97
2022-08-20T11:55:50.762Z,27.94
2022-08-20T11:58:19.080Z,27.96
2022-08-20T12:00:47.338Z,27.98
2022-08-20T12:03:16.260Z,27.91
2022-08-20T12:05:46.361Z,27.82
2022-08-20T12:08:27.598Z,27.71
2022-08-20T12:10:59.540Z,27.68
2022-08-20T12:13:48.447Z,27.76
2022-08-20T12:16:19.185Z,27.65
2022-08-20T12:18:48.255Z,27.81
2022-08-20T12:21:16.948Z,27.83
2022-08-20T12:23:45.609Z,27.90
2022-08-20T12:26:14.393Z,28.00
2022-08-20T12:28:43.186Z,27.98
2022-08-20T12:31:11.497Z,28.08
2022-08-20T12:33:39.739Z,28.15
2022-08-20T12:36:08.211Z,28.16
2022-08-20T12:38:36.547Z,28.16
2022-08-20T12:41:04.765Z,28.19
2022-08-20T12:43:32.964Z,28.31
2022-08-20T12:46:01.232Z,28.52
2022-08-20T12:48:29.525Z,28.74
2022-08-20T12:50:57.836Z,28.95
2022-08-20T12:53:26.165Z,29.19
2022-08-20T12:55:54.385Z,29.45
2022-08-20T12:58:22.620Z,29.81
2022-08-20T13:00:51.445Z,30.21
2022-08-20T13:03:21.034Z,30.70
2022-08-20T13:05:50.184Z,31.07
2022-08-20T13:08:19.631Z,31.42
2022-08-20T13:10:48.432Z,31.89
2022-08-20T13:13:20.393Z,32.26
2022-08-20T13:15:51.256Z,32.51
2022-08-20T13:18:20.680Z,32.65
2022-08-20T13:20:49.521Z,32.88
2022-08-20T13:23:17.944Z,32.80
2022-08-20T13:25:46.177Z,32.65
2022-08-20T13:28:14.457Z,32.53
2022-08-20T13:30:42.764Z,32.54
2022-08-20T13:33:11.040Z,32.64
2022-08-20T13:35:39.232Z,32.84
2022-08-20T13:38:07.546Z,32.91
2022-08-20T13:40:35.985Z,32.74
2022-08-20T13:43:07.108Z,32.64
2022-08-20T13:45:39.937Z,32.80
2022-08-20T13:48:09.995Z,32.89
2022-08-20T13:50:47.268Z,33.06
2022-08-20T13:53:16.703Z,33.16
2022-08-20T13:55:45.848Z,33.05
2022-08-20T13:58:14.115Z,32.82
2022-08-20T14:00:42.540Z,32.51
2022-08-20T14:03:11.436Z,32.25
2022-08-20T14:05:40.087Z,32.03
2022-08-20T14:08:20.857Z,31.73
2022-08-20T14:10:51.564Z,31.46
2022-08-20T14:13:23.233Z,31.26
2022-08-20T14:15:52.121Z,31.11
2022-08-20T14:18:21.052Z,31.04
2022-08-20T14:20:49.668Z,30.99
2022-08-20T14:23:17.904Z,30.95
2022-08-20T14:25:47.973Z,31.03
2022-08-20T14:28:22.108Z,31.09
2022-08-20T14:30:53.235Z,31.13
2022-08-20T14:33:23.863Z,31.14
2022-08-20T14:35:53.199Z,31.12
2022-08-20T14:38:21.744Z,31.05
2022-08-20T14:40:50.765Z,30.96
2022-08-20T14:43:19.599Z,30.81
2022-08-20T14:45:48.025Z,30.60
2022-08-20T14:48:16.274Z,30.41
2022-08-20T14:50:44.557Z,30.23
2022-08-20T14:53:12.812Z,30.10
2022-08-20T14:55:41.005Z,29.96
2022-08-20T14:58:11.316Z,29.85
2022-08-20T15:00:39.983Z,29.76
2022-08-20T15:03:08.352Z,29.65
2022-08-20T15:05:39.479Z,29.55
2022-08-20T15:08:10.872Z,29.48
2022-08-20T15:10:39.980Z,29.40
2022-08-20T15:13:14.861Z,29.31
2022-08-20T15:15:43.789Z,29.22
2022-08-20T15:18:14.315Z,29.15
2022-08-20T15:20:42.536Z,29.06
2022-08-20T15:23:10.772Z,29.00
2022-08-20T15:25:38.972Z,28.94
2022-08-20T15:28:10.564Z,28.91
2022-08-20T15:30:41.530Z,28.87
2022-08-20T15:33:11.155Z,28.83
2022-08-20T15:35:39.681Z,28.80
2022-08-20T15:38:08.076Z,28.75
2022-08-20T15:40:36.866Z,28.70
2022-08-20T15:43:05.712Z,28.65
2022-08-20T15:45:35.682Z,28.60
2022-08-20T15:48:12.684Z,28.54
2022-08-20T15:51:08.839Z,28.52
2022-08-20T15:53:54.528Z,28.53
2022-08-20T15:56:50.792Z,28.54
2022-08-20T15:59:25.864Z,28.53
2022-08-20T16:02:12.968Z,28.50
2022-08-20T16:05:02.323Z,28.46
2022-08-20T16:07:33.144Z,28.43
2022-08-20T16:10:44.684Z,28.36
2022-08-20T16:13:39.719Z,28.28
2022-08-20T16:16:17.418Z,28.24
2022-08-20T16:18:50.318Z,28.21
2022-08-20T16:21:34.959Z,28.17
2022-08-20T16:24:05.935Z,28.11
2022-08-20T16:27:22.261Z,28.06
2022-08-20T16:29:53.297Z,27.98
2022-08-20T16:32:30.408Z,27.91
2022-08-20T16:35:29.663Z,27.86
2022-08-20T16:38:07.036Z,27.77
2022-08-20T16:40:49.480Z,27.67
2022-08-20T16:43:32.023Z,27.62
2022-08-20T16:46:15.659Z,27.61
2022-08-20T16:49:05.800Z,27.57
2022-08-20T16:51:37.175Z,27.51
2022-08-20T16:54:06.074Z,27.50
2022-08-20T16:56:44.199Z,27.47
2022-08-20T16:59:26.599Z,27.41
2022-08-20T17:02:10.254Z,27.35
2022-08-20T17:05:00.048Z,27.25
2022-08-20T17:07:43.263Z,27.19
2022-08-20T17:10:35.475Z,27.09
2022-08-20T17:13:19.758Z,27.07
2022-08-20T17:16:05.186Z,27.03
2022-08-20T17:18:37.126Z,26.98
2022-08-20T17:21:15.839Z,26.96
2022-08-20T17:23:56.325Z,26.94
2022-08-20T17:26:40.846Z,26.90
2022-08-20T17:29:13.630Z,26.84
2022-08-20T17:31:45.559Z,26.79
2022-08-20T17:34:17.870Z,26.73
2022-08-20T17:36:57.146Z,26.69
2022-08-20T17:39:29.149Z,26.63
2022-08-20T17:42:10.736Z,26.60
2022-08-20T17:44:43.569Z,26.56
2022-08-20T17:47:16.524Z,26.52
2022-08-20T17:50:02.525Z,26.47
2022-08-20T17:52:39.183Z,26.41
2022-08-20T17:55:08.818Z,26.36
2022-08-20T17:57:40.293Z,26.29
2022-08-20T18:00:14.986Z,26.20
2022-08-20T18:02:44.239Z,26.13
2022-08-20T18:05:19.958Z,26.00
2022-08-20T18:08:15.007Z,26.04
2022-08-20T18:10:51.409Z,25.87
2022-08-20T18:13:48.020Z,25.92
2022-08-20T18:16:29.999Z,25.84
2022-08-20T18:19:15.207Z,25.77
2022-08-20T18:22:20.778Z,25.71
2022-08-20T18:25:24.364Z,25.64
2022-08-20T18:27:57.401Z,25.56
2022-08-20T18:30:26.973Z,25.50
2022-08-20T18:33:07.626Z,25.45
2022-08-20T18:35:45.705Z,25.42
2022-08-20T18:38:23.504Z,25.38
2022-08-20T18:40:55.038Z,25.31
2022-08-20T18:43:30.700Z,25.26
2022-08-20T18:46:22.667Z,25.23
2022-08-20T18:49:01.705Z,25.24
2022-08-20T18:51:50.851Z,25.27
2022-08-20T18:54:32.978Z,25.29
2022-08-20T18:57:04.078Z,25.31
2022-08-20T18:59:39.169Z,25.29
2022-08-20T19:02:32.489Z,25.27
2022-08-20T19:05:12.570Z,25.25
2022-08-20T19:07:48.633Z,25.19
2022-08-20T19:10:44.109Z,25.14
2022-08-20T19:13:30.853Z,25.10
2022-08-20T19:16:28.941Z,25.06
2022-08-20T19:18:57.185Z,25.02
2022-08-20T19:21:30.489Z,24.99
2022-08-20T19:24:03.440Z,24.98
2022-08-20T19:26:39.619Z,24.99
2022-08-20T19:29:13.091Z,24.99
2022-08-20T19:31:41.998Z,24.98
2022-08-20T19:34:20.423Z,24.96
2022-08-20T19:37:02.576Z,24.97
2022-08-20T19:39:49.152Z,24.96
2022-08-20T19:42:24.221Z,24.92
2022-08-20T19:44:55.421Z,24.88
2022-08-20T19:47:31.921Z,24.85
2022-08-20T19:50:17.590Z,24.76
2022-08-20T19:52:45.738Z,24.77
2022-08-20T19:55:20.103Z,24.76
2022-08-20T19:57:54.103Z,24.75
2022-08-20T20:00:24.262Z,24.72
2022-08-20T20:02:53.022Z,24.72
2022-08-20T20:05:22.754Z,24.71
2022-08-20T20:07:57.390Z,24.70
2022-08-20T20:10:35.209Z,24.62
2022-08-20T20:13:14.407Z,24.59
2022-08-20T20:15:43.006Z,24.58
2022-08-20T20:18:12.242Z,24.57
2022-08-20T20:21:29.162Z,24.53
2022-08-20T20:23:59.229Z,24.47
2022-08-20T20:26:35.543Z,24.42
2022-08-20T20:29:14.177Z,24.41
2022-08-20T20:31:51.363Z,24.41
2022-08-20T20:34:28.771Z,24.36
2022-08-20T20:37:12.675Z,24.32
2022-08-20T20:39:45.303Z,24.28
2022-08-20T20:42:26.086Z,24.23
2022-08-20T20:44:54.735Z,24.24
2022-08-20T20:47:27.315Z,24.21
2022-08-20T20:49:59.750Z,24.17
2022-08-20T20:52:37.422Z,24.14
2022-08-20T20:55:14.517Z,24.14
2022-08-20T20:57:42.902Z,24.11
2022-08-20T21:00:23.197Z,24.07
2022-08-20T21:02:51.481Z,23.96
2022-08-20T21:05:23.397Z,24.06
2022-08-20T21:08:01.499Z,24.06
2022-08-20T21:10:33.164Z,24.03
2022-08-20T21:13:03.590Z,24.00
2022-08-20T21:15:33.153Z,23.99
2022-08-20T21:18:04.612Z,24.00
2022-08-20T21:20:33.451Z,24.03
2022-08-20T21:23:01.761Z,24.03
2022-08-20T21:25:32.769Z,24.02
2022-08-20T21:28:01.290Z,24.00
2022-08-20T21:30:30.118Z,23.99
2022-08-20T21:32:58.647Z,23.96
2022-08-20T21:35:27.707Z,23.92
2022-08-20T21:37:55.873Z,23.89
2022-08-20T21:40:24.218Z,23.81
2022-08-20T21:42:57.489Z,23.81
2022-08-20T21:45:28.516Z,23.75
2022-08-20T21:47:58.615Z,23.70
2022-08-20T21:50:27.869Z,23.69
2022-08-20T21:52:59.837Z,23.60
2022-08-20T21:55:37.506Z,23.65
2022-08-20T21:58:08.747Z,23.66
2022-08-20T22:00:52.563Z,23.65
2022-08-20T22:03:22.192Z,23.64
2022-08-20T22:05:51.257Z,23.58
2022-08-20T22:08:20.053Z,23.54
2022-08-20T22:10:50.161Z,23.51
2022-08-20T22:13:18.369Z,23.48
2022-08-20T22:15:46.740Z,23.43
2022-08-20T22:18:16.768Z,23.40
2022-08-20T22:20:45.261Z,23.36
2022-08-20T22:23:13.570Z,23.31
2022-08-20T22:25:42.021Z,23.26
2022-08-20T22:28:10.259Z,23.17
2022-08-20T22:30:42.212Z,23.08
2022-08-20T22:33:17.086Z,22.98
2022-08-20T22:35:48.781Z,22.92
2022-08-20T22:38:17.980Z,22.85
2022-08-20T22:40:46.685Z,22.78
2022-08-20T22:43:16.168Z,22.72
2022-08-20T22:45:47.447Z,22.67
2022-08-20T22:48:19.108Z,22.62
2022-08-20T22:50:48.935Z,22.56
2022-08-20T22:53:19.531Z,22.52
2022-08-20T22:55:49.143Z,22.46
2022-08-20T22:58:18.547Z,22.34
2022-08-20T23:01:01.359Z,22.17
2022-08-20T23:03:39.504Z,22.01
2022-08-20T23:06:09.712Z,21.80
2022-08-20T23:08:38.779Z,21.81
2022-08-20T23:11:07.080Z,21.78
2022-08-20T23:13:35.203Z,21.74
2022-08-20T23:16:04.971Z,21.73
2022-08-20T23:18:33.469Z,21.72
2022-08-20T23:21:01.652Z,21.72
2022-08-20T23:23:30.552Z,21.67
2022-08-20T23:25:59.099Z,21.63
2022-08-20T23:28:27.459Z,21.62
2022-08-20T23:30:55.715Z,21.60
2022-08-20T23:33:24.028Z,21.54
2022-08-20T23:35:52.312Z,21.48
2022-08-20T23:38:21.309Z,21.46
2022-08-20T23:40:49.515Z,21.44
2022-08-20T23:43:18.851Z,21.44
2022-08-20T23:45:47.127Z,21.42
2022-08-20T23:48:15.352Z,21.40
2022-08-20T23:50:43.895Z,21.40
2022-08-20T23:53:12.116Z,21.39
2022-08-20T23:55:40.525Z,21.39
2022-08-20T23:58:08.726Z,21.29
